sensor_id;sensor_type;location;lat;lon;timestamp;P1;durP1;ratioP1;P2;durP2;ratioP2
10761;SDS011;5433;50.862;4.320;2023-02-07T00:02:21;21.45;;;8.98;;
10761;SDS011;5433;50.862;4.320;2023-02-07T00:04:47;25.33;;;9.73;;
10761;SDS011;5433;50.862;4.320;2023-02-07T00:07:13;23.17;;;8.98;;
10761;SDS011;5433;50.862;4.320;2023-02-07T00:09:39;19.67;;;9.45;;
10761;SDS011;5433;50.862;4.320;2023-02-07T00:12:06;18.40;;;9.70;;
10761;SDS011;5433;50.862;4.320;2023-02-07T00:14:32;21.08;;;9.82;;
10761;SDS011;5433;50.862;4.320;2023-02-07T00:16:58;22.05;;;9.52;;
10761;SDS011;5433;50.862;4.320;2023-02-07T00:19:24;21.25;;;9.75;;
10761;SDS011;5433;50.862;4.320;2023-02-07T00:21:50;23.13;;;10.07;;
10761;SDS011;5433;50.862;4.320;2023-02-07T00:24:16;21.60;;;10.00;;
10761;SDS011;5433;50.862;4.320;2023-02-07T00:26:42;23.63;;;10.27;;
10761;SDS011;5433;50.862;4.320;2023-02-07T00:29:10;18.20;;;10.02;;
10761;SDS011;5433;50.862;4.320;2023-02-07T00:31:36;28.77;;;10.52;;
10761;SDS011;5433;50.862;4.320;2023-02-07T00:34:04;22.75;;;11.02;;
10761;SDS011;5433;50.862;4.320;2023-02-07T00:36:31;26.05;;;10.43;;
10761;SDS011;5433;50.862;4.320;2023-02-07T00:38:58;21.45;;;10.73;;
10761;SDS011;5433;50.862;4.320;2023-02-07T00:41:25;25.27;;;11.02;;
10761;SDS011;5433;50.862;4.320;2023-02-07T00:43:51;23.77;;;10.90;;
10761;SDS011;5433;50.862;4.320;2023-02-07T00:46:17;23.33;;;10.82;;
10761;SDS011;5433;50.862;4.320;2023-02-07T00:48:44;21.50;;;10.82;;
10761;SDS011;5433;50.862;4.320;2023-02-07T00:51:11;23.88;;;11.25;;
10761;SDS011;5433;50.862;4.320;2023-02-07T00:53:37;26.02;;;12.20;;
10761;SDS011;5433;50.862;4.320;2023-02-07T00:56:04;21.67;;;10.27;;
10761;SDS011;5433;50.862;4.320;2023-02-07T00:58:31;24.85;;;11.88;;
10761;SDS011;5433;50.862;4.320;2023-02-07T01:00:57;25.70;;;12.02;;
10761;SDS011;5433;50.862;4.320;2023-02-07T01:03:23;24.08;;;11.18;;
10761;SDS011;5433;50.862;4.320;2023-02-07T01:05:49;27.98;;;11.70;;
10761;SDS011;5433;50.862;4.320;2023-02-07T01:08:15;27.13;;;12.48;;
10761;SDS011;5433;50.862;4.320;2023-02-07T01:10:42;28.90;;;12.85;;
10761;SDS011;5433;50.862;4.320;2023-02-07T01:13:09;23.25;;;12.32;;
10761;SDS011;5433;50.862;4.320;2023-02-07T01:15:36;25.00;;;11.63;;
10761;SDS011;5433;50.862;4.320;2023-02-07T01:18:02;26.25;;;11.77;;
10761;SDS011;5433;50.862;4.320;2023-02-07T01:20:28;24.63;;;12.73;;
10761;SDS011;5433;50.862;4.320;2023-02-07T01:22:55;27.10;;;12.70;;
10761;SDS011;5433;50.862;4.320;2023-02-07T01:25:21;26.77;;;13.05;;
10761;SDS011;5433;50.862;4.320;2023-02-07T01:27:47;26.85;;;13.32;;
10761;SDS011;5433;50.862;4.320;2023-02-07T01:30:13;29.63;;;13.05;;
10761;SDS011;5433;50.862;4.320;2023-02-07T01:32:39;27.52;;;13.30;;
10761;SDS011;5433;50.862;4.320;2023-02-07T01:35:05;28.92;;;13.18;;
10761;SDS011;5433;50.862;4.320;2023-02-07T01:37:32;26.40;;;13.30;;
10761;SDS011;5433;50.862;4.320;2023-02-07T01:39:58;26.55;;;13.25;;
10761;SDS011;5433;50.862;4.320;2023-02-07T01:42:26;31.85;;;13.82;;
10761;SDS011;5433;50.862;4.320;2023-02-07T01:47:20;31.08;;;13.25;;
10761;SDS011;5433;50.862;4.320;2023-02-07T01:49:46;28.88;;;13.75;;
10761;SDS011;5433;50.862;4.320;2023-02-07T01:52:18;26.88;;;13.93;;
10761;SDS011;5433;50.862;4.320;2023-02-07T01:54:48;29.23;;;13.57;;
10761;SDS011;5433;50.862;4.320;2023-02-07T01:57:16;30.20;;;13.02;;
10761;SDS011;5433;50.862;4.320;2023-02-07T01:59:44;30.38;;;14.27;;
10761;SDS011;5433;50.862;4.320;2023-02-07T02:02:11;29.85;;;14.90;;
10761;SDS011;5433;50.862;4.320;2023-02-07T02:04:38;27.33;;;13.85;;
10761;SDS011;5433;50.862;4.320;2023-02-07T02:07:05;30.67;;;13.63;;
10761;SDS011;5433;50.862;4.320;2023-02-07T02:09:32;29.67;;;13.88;;
10761;SDS011;5433;50.862;4.320;2023-02-07T02:14:49;29.40;;;14.48;;
10761;SDS011;5433;50.862;4.320;2023-02-07T02:17:23;27.73;;;14.35;;
10761;SDS011;5433;50.862;4.320;2023-02-07T02:25:46;52.88;;;20.77;;
10761;SDS011;5433;50.862;4.320;2023-02-07T02:28:58;39.42;;;17.38;;
10761;SDS011;5433;50.862;4.320;2023-02-07T02:33:40;33.95;;;15.52;;
10761;SDS011;5433;50.862;4.320;2023-02-07T02:41:13;31.05;;;15.00;;
10761;SDS011;5433;50.862;4.320;2023-02-07T02:43:46;28.85;;;15.02;;
10761;SDS011;5433;50.862;4.320;2023-02-07T02:48:41;33.58;;;15.88;;
10761;SDS011;5433;50.862;4.320;2023-02-07T02:51:07;39.35;;;16.10;;
10761;SDS011;5433;50.862;4.320;2023-02-07T02:53:33;29.88;;;15.05;;
10761;SDS011;5433;50.862;4.320;2023-02-07T02:56:11;28.17;;;14.98;;
10761;SDS011;5433;50.862;4.320;2023-02-07T03:01:27;33.92;;;16.40;;
10761;SDS011;5433;50.862;4.320;2023-02-07T03:11:53;32.60;;;15.98;;
10761;SDS011;5433;50.862;4.320;2023-02-07T03:14:24;36.47;;;17.05;;
10761;SDS011;5433;50.862;4.320;2023-02-07T03:16:56;32.45;;;16.23;;
10761;SDS011;5433;50.862;4.320;2023-02-07T03:21:59;35.25;;;17.92;;
10761;SDS011;5433;50.862;4.320;2023-02-07T03:24:31;37.22;;;17.77;;
10761;SDS011;5433;50.862;4.320;2023-02-07T03:26:59;39.13;;;18.60;;
10761;SDS011;5433;50.862;4.320;2023-02-07T03:29:25;38.80;;;18.15;;
10761;SDS011;5433;50.862;4.320;2023-02-07T03:31:54;38.03;;;17.52;;
10761;SDS011;5433;50.862;4.320;2023-02-07T03:34:23;32.42;;;17.75;;
10761;SDS011;5433;50.862;4.320;2023-02-07T03:39:19;31.08;;;17.00;;
10761;SDS011;5433;50.862;4.320;2023-02-07T03:41:48;38.67;;;18.02;;
10761;SDS011;5433;50.862;4.320;2023-02-07T03:44:16;35.67;;;17.15;;
10761;SDS011;5433;50.862;4.320;2023-02-07T03:46:44;34.10;;;16.48;;
10761;SDS011;5433;50.862;4.320;2023-02-07T03:49:10;42.28;;;17.00;;
10761;SDS011;5433;50.862;4.320;2023-02-07T03:51:38;35.63;;;17.20;;
10761;SDS011;5433;50.862;4.320;2023-02-07T03:54:04;35.47;;;16.90;;
10761;SDS011;5433;50.862;4.320;2023-02-07T03:56:30;37.50;;;18.45;;
10761;SDS011;5433;50.862;4.320;2023-02-07T03:58:56;40.28;;;17.88;;
10761;SDS011;5433;50.862;4.320;2023-02-07T04:01:22;37.22;;;19.10;;
10761;SDS011;5433;50.862;4.320;2023-02-07T04:03:48;37.50;;;18.33;;
10761;SDS011;5433;50.862;4.320;2023-02-07T04:06:14;36.15;;;18.85;;
10761;SDS011;5433;50.862;4.320;2023-02-07T04:08:40;38.65;;;18.35;;
10761;SDS011;5433;50.862;4.320;2023-02-07T04:11:06;36.72;;;17.55;;
10761;SDS011;5433;50.862;4.320;2023-02-07T04:13:32;32.97;;;17.25;;
10761;SDS011;5433;50.862;4.320;2023-02-07T04:15:58;36.47;;;18.13;;
10761;SDS011;5433;50.862;4.320;2023-02-07T04:18:25;34.55;;;17.65;;
10761;SDS011;5433;50.862;4.320;2023-02-07T04:20:51;34.75;;;17.73;;
10761;SDS011;5433;50.862;4.320;2023-02-07T04:23:17;36.63;;;17.48;;
10761;SDS011;5433;50.862;4.320;2023-02-07T04:25:43;39.17;;;18.20;;
10761;SDS011;5433;50.862;4.320;2023-02-07T04:28:09;34.38;;;16.27;;
10761;SDS011;5433;50.862;4.320;2023-02-07T04:30:35;33.08;;;18.08;;
10761;SDS011;5433;50.862;4.320;2023-02-07T04:33:01;31.67;;;16.80;;
10761;SDS011;5433;50.862;4.320;2023-02-07T04:35:27;34.58;;;16.30;;
10761;SDS011;5433;50.862;4.320;2023-02-07T04:37:53;30.13;;;16.52;;
10761;SDS011;5433;50.862;4.320;2023-02-07T04:40:19;35.55;;;17.40;;
10761;SDS011;5433;50.862;4.320;2023-02-07T04:42:45;37.13;;;16.77;;
10761;SDS011;5433;50.862;4.320;2023-02-07T04:45:11;40.83;;;18.08;;
10761;SDS011;5433;50.862;4.320;2023-02-07T04:47:37;39.78;;;17.60;;
10761;SDS011;5433;50.862;4.320;2023-02-07T04:50:04;40.15;;;17.25;;
10761;SDS011;5433;50.862;4.320;2023-02-07T04:52:30;28.65;;;16.10;;
10761;SDS011;5433;50.862;4.320;2023-02-07T04:54:56;32.83;;;16.75;;
10761;SDS011;5433;50.862;4.320;2023-02-07T04:57:22;54.70;;;17.38;;
10761;SDS011;5433;50.862;4.320;2023-02-07T04:59:48;35.20;;;17.55;;
10761;SDS011;5433;50.862;4.320;2023-02-07T05:02:14;31.80;;;17.60;;
10761;SDS011;5433;50.862;4.320;2023-02-07T05:04:40;35.25;;;15.98;;
10761;SDS011;5433;50.862;4.320;2023-02-07T05:07:06;36.22;;;17.10;;
10761;SDS011;5433;50.862;4.320;2023-02-07T05:09:33;41.10;;;16.77;;
10761;SDS011;5433;50.862;4.320;2023-02-07T05:11:59;27.15;;;16.10;;
10761;SDS011;5433;50.862;4.320;2023-02-07T05:14:25;28.73;;;15.52;;
10761;SDS011;5433;50.862;4.320;2023-02-07T05:16:51;27.35;;;15.57;;
10761;SDS011;5433;50.862;4.320;2023-02-07T05:19:17;31.77;;;16.15;;
10761;SDS011;5433;50.862;4.320;2023-02-07T05:21:43;29.63;;;15.95;;
10761;SDS011;5433;50.862;4.320;2023-02-07T05:24:09;27.80;;;15.68;;
10761;SDS011;5433;50.862;4.320;2023-02-07T05:26:35;30.60;;;15.95;;
10761;SDS011;5433;50.862;4.320;2023-02-07T05:29:01;31.88;;;16.45;;
10761;SDS011;5433;50.862;4.320;2023-02-07T05:31:27;32.67;;;15.38;;
10761;SDS011;5433;50.862;4.320;2023-02-07T05:34:12;29.90;;;16.83;;
10761;SDS011;5433;50.862;4.320;2023-02-07T05:36:38;30.27;;;15.90;;
10761;SDS011;5433;50.862;4.320;2023-02-07T05:39:05;30.75;;;15.63;;
10761;SDS011;5433;50.862;4.320;2023-02-07T05:41:31;29.77;;;16.15;;
10761;SDS011;5433;50.862;4.320;2023-02-07T05:43:57;29.20;;;16.08;;
10761;SDS011;5433;50.862;4.320;2023-02-07T05:46:23;29.13;;;16.02;;
10761;SDS011;5433;50.862;4.320;2023-02-07T05:48:49;31.85;;;16.95;;
10761;SDS011;5433;50.862;4.320;2023-02-07T05:51:15;33.90;;;16.05;;
10761;SDS011;5433;50.862;4.320;2023-02-07T05:53:41;29.63;;;15.80;;
10761;SDS011;5433;50.862;4.320;2023-02-07T05:56:07;32.92;;;15.90;;
10761;SDS011;5433;50.862;4.320;2023-02-07T05:58:33;33.05;;;15.73;;
10761;SDS011;5433;50.862;4.320;2023-02-07T06:00:59;27.90;;;15.60;;
10761;SDS011;5433;50.862;4.320;2023-02-07T06:03:25;31.08;;;15.90;;
10761;SDS011;5433;50.862;4.320;2023-02-07T06:05:51;33.65;;;17.08;;
10761;SDS011;5433;50.862;4.320;2023-02-07T06:08:17;35.33;;;17.13;;
10761;SDS011;5433;50.862;4.320;2023-02-07T06:10:43;37.47;;;17.73;;
10761;SDS011;5433;50.862;4.320;2023-02-07T06:13:09;35.80;;;16.33;;
10761;SDS011;5433;50.862;4.320;2023-02-07T06:15:35;31.15;;;17.10;;
10761;SDS011;5433;50.862;4.320;2023-02-07T06:18:01;82.43;;;39.75;;
10761;SDS011;5433;50.862;4.320;2023-02-07T06:20:27;33.25;;;16.80;;
10761;SDS011;5433;50.862;4.320;2023-02-07T06:22:53;34.90;;;16.58;;
10761;SDS011;5433;50.862;4.320;2023-02-07T06:25:19;30.77;;;15.27;;
10761;SDS011;5433;50.862;4.320;2023-02-07T06:27:45;32.92;;;16.23;;
10761;SDS011;5433;50.862;4.320;2023-02-07T06:30:12;31.02;;;15.73;;
10761;SDS011;5433;50.862;4.320;2023-02-07T06:32:38;31.70;;;16.98;;
10761;SDS011;5433;50.862;4.320;2023-02-07T06:35:04;35.92;;;16.98;;
10761;SDS011;5433;50.862;4.320;2023-02-07T06:37:30;32.35;;;16.13;;
10761;SDS011;5433;50.862;4.320;2023-02-07T06:39:56;32.03;;;17.92;;
10761;SDS011;5433;50.862;4.320;2023-02-07T06:42:22;30.45;;;15.68;;
10761;SDS011;5433;50.862;4.320;2023-02-07T06:44:48;32.75;;;16.83;;
10761;SDS011;5433;50.862;4.320;2023-02-07T06:47:15;31.52;;;15.55;;
10761;SDS011;5433;50.862;4.320;2023-02-07T06:49:41;33.10;;;17.17;;
10761;SDS011;5433;50.862;4.320;2023-02-07T06:52:07;30.73;;;16.17;;
10761;SDS011;5433;50.862;4.320;2023-02-07T06:54:33;32.58;;;17.00;;
10761;SDS011;5433;50.862;4.320;2023-02-07T06:56:59;43.03;;;21.88;;
10761;SDS011;5433;50.862;4.320;2023-02-07T06:59:25;35.63;;;16.05;;
10761;SDS011;5433;50.862;4.320;2023-02-07T07:01:51;35.55;;;16.23;;
10761;SDS011;5433;50.862;4.320;2023-02-07T07:04:17;40.70;;;17.45;;
10761;SDS011;5433;50.862;4.320;2023-02-07T07:06:43;37.85;;;16.95;;
10761;SDS011;5433;50.862;4.320;2023-02-07T07:09:09;41.80;;;17.50;;
10761;SDS011;5433;50.862;4.320;2023-02-07T07:11:36;47.38;;;17.33;;
10761;SDS011;5433;50.862;4.320;2023-02-07T07:14:06;33.28;;;16.50;;
10761;SDS011;5433;50.862;4.320;2023-02-07T07:16:32;33.25;;;17.25;;
10761;SDS011;5433;50.862;4.320;2023-02-07T07:18:59;35.80;;;18.67;;
10761;SDS011;5433;50.862;4.320;2023-02-07T07:21:25;42.03;;;18.10;;
10761;SDS011;5433;50.862;4.320;2023-02-07T07:23:52;36.75;;;15.68;;
10761;SDS011;5433;50.862;4.320;2023-02-07T07:26:18;50.63;;;16.92;;
10761;SDS011;5433;50.862;4.320;2023-02-07T07:28:44;36.80;;;17.00;;
10761;SDS011;5433;50.862;4.320;2023-02-07T07:31:11;37.38;;;17.23;;
10761;SDS011;5433;50.862;4.320;2023-02-07T07:33:37;35.03;;;16.65;;
10761;SDS011;5433;50.862;4.320;2023-02-07T07:36:04;49.45;;;16.45;;
10761;SDS011;5433;50.862;4.320;2023-02-07T07:38:30;46.55;;;17.85;;
10761;SDS011;5433;50.862;4.320;2023-02-07T07:40:57;48.88;;;18.73;;
10761;SDS011;5433;50.862;4.320;2023-02-07T07:43:23;39.15;;;19.13;;
10761;SDS011;5433;50.862;4.320;2023-02-07T07:45:53;43.60;;;19.27;;
10761;SDS011;5433;50.862;4.320;2023-02-07T07:48:20;45.15;;;18.58;;
10761;SDS011;5433;50.862;4.320;2023-02-07T07:50:46;41.72;;;19.02;;
10761;SDS011;5433;50.862;4.320;2023-02-07T07:53:12;45.42;;;18.90;;
10761;SDS011;5433;50.862;4.320;2023-02-07T07:55:39;41.42;;;19.48;;
10761;SDS011;5433;50.862;4.320;2023-02-07T07:58:06;46.75;;;20.05;;
10761;SDS011;5433;50.862;4.320;2023-02-07T08:00:32;44.50;;;19.77;;
10761;SDS011;5433;50.862;4.320;2023-02-07T08:02:58;59.40;;;23.98;;
10761;SDS011;5433;50.862;4.320;2023-02-07T08:05:25;39.40;;;19.42;;
10761;SDS011;5433;50.862;4.320;2023-02-07T08:07:51;41.00;;;20.02;;
10761;SDS011;5433;50.862;4.320;2023-02-07T08:10:17;43.60;;;20.00;;
10761;SDS011;5433;50.862;4.320;2023-02-07T08:12:43;44.90;;;20.10;;
10761;SDS011;5433;50.862;4.320;2023-02-07T08:15:09;43.13;;;19.20;;
10761;SDS011;5433;50.862;4.320;2023-02-07T08:17:37;42.05;;;19.88;;
10761;SDS011;5433;50.862;4.320;2023-02-07T08:20:04;44.22;;;19.85;;
10761;SDS011;5433;50.862;4.320;2023-02-07T08:22:30;42.45;;;20.58;;
10761;SDS011;5433;50.862;4.320;2023-02-07T08:24:56;44.10;;;17.65;;
10761;SDS011;5433;50.862;4.320;2023-02-07T08:27:22;41.00;;;18.38;;
10761;SDS011;5433;50.862;4.320;2023-02-07T08:29:48;37.88;;;19.63;;
10761;SDS011;5433;50.862;4.320;2023-02-07T08:32:14;36.72;;;18.85;;
10761;SDS011;5433;50.862;4.320;2023-02-07T08:34:40;40.08;;;20.70;;
10761;SDS011;5433;50.862;4.320;2023-02-07T08:37:06;38.72;;;20.77;;
10761;SDS011;5433;50.862;4.320;2023-02-07T08:39:33;48.95;;;22.95;;
10761;SDS011;5433;50.862;4.320;2023-02-07T08:42:00;41.33;;;18.65;;
10761;SDS011;5433;50.862;4.320;2023-02-07T08:44:26;39.65;;;19.17;;
10761;SDS011;5433;50.862;4.320;2023-02-07T08:46:52;36.13;;;18.65;;
10761;SDS011;5433;50.862;4.320;2023-02-07T08:49:18;35.42;;;18.13;;
10761;SDS011;5433;50.862;4.320;2023-02-07T08:51:44;33.83;;;16.33;;
10761;SDS011;5433;50.862;4.320;2023-02-07T08:54:10;36.58;;;17.58;;
10761;SDS011;5433;50.862;4.320;2023-02-07T08:56:36;40.55;;;18.27;;
10761;SDS011;5433;50.862;4.320;2023-02-07T08:59:02;38.50;;;19.00;;
10761;SDS011;5433;50.862;4.320;2023-02-07T09:01:28;36.17;;;19.88;;
10761;SDS011;5433;50.862;4.320;2023-02-07T09:03:55;40.85;;;19.08;;
10761;SDS011;5433;50.862;4.320;2023-02-07T09:06:21;37.95;;;19.25;;
10761;SDS011;5433;50.862;4.320;2023-02-07T09:08:48;35.00;;;16.35;;
10761;SDS011;5433;50.862;4.320;2023-02-07T09:11:14;37.00;;;19.73;;
10761;SDS011;5433;50.862;4.320;2023-02-07T09:13:40;38.08;;;18.15;;
10761;SDS011;5433;50.862;4.320;2023-02-07T09:16:09;39.72;;;19.15;;
10761;SDS011;5433;50.862;4.320;2023-02-07T09:18:35;37.83;;;19.40;;
10761;SDS011;5433;50.862;4.320;2023-02-07T09:21:03;42.20;;;20.40;;
10761;SDS011;5433;50.862;4.320;2023-02-07T09:23:29;38.42;;;19.35;;
10761;SDS011;5433;50.862;4.320;2023-02-07T09:25:58;38.90;;;18.52;;
10761;SDS011;5433;50.862;4.320;2023-02-07T09:28:25;39.75;;;20.25;;
10761;SDS011;5433;50.862;4.320;2023-02-07T09:30:51;39.47;;;20.42;;
10761;SDS011;5433;50.862;4.320;2023-02-07T09:33:17;40.00;;;19.92;;
10761;SDS011;5433;50.862;4.320;2023-02-07T09:35:43;40.78;;;20.35;;
10761;SDS011;5433;50.862;4.320;2023-02-07T09:38:14;37.60;;;18.90;;
10761;SDS011;5433;50.862;4.320;2023-02-07T09:40:40;40.92;;;20.17;;
10761;SDS011;5433;50.862;4.320;2023-02-07T09:45:33;37.92;;;20.00;;
10761;SDS011;5433;50.862;4.320;2023-02-07T09:48:14;36.53;;;19.38;;
10761;SDS011;5433;50.862;4.320;2023-02-07T09:50:44;37.30;;;19.38;;
10761;SDS011;5433;50.862;4.320;2023-02-07T09:53:17;38.53;;;21.13;;
10761;SDS011;5433;50.862;4.320;2023-02-07T09:58:16;36.25;;;19.88;;
10761;SDS011;5433;50.862;4.320;2023-02-07T10:00:45;37.38;;;19.70;;
10761;SDS011;5433;50.862;4.320;2023-02-07T10:03:16;33.00;;;16.25;;
10761;SDS011;5433;50.862;4.320;2023-02-07T10:05:44;30.85;;;14.50;;
10761;SDS011;5433;50.862;4.320;2023-02-07T10:08:14;24.23;;;12.98;;
10761;SDS011;5433;50.862;4.320;2023-02-07T10:10:42;28.05;;;15.10;;
10761;SDS011;5433;50.862;4.320;2023-02-07T10:16:00;25.05;;;14.10;;
10761;SDS011;5433;50.862;4.320;2023-02-07T10:18:34;25.88;;;14.10;;
10761;SDS011;5433;50.862;4.320;2023-02-07T10:31:17;21.40;;;11.73;;
10761;SDS011;5433;50.862;4.320;2023-02-07T10:33:50;21.25;;;11.27;;
10761;SDS011;5433;50.862;4.320;2023-02-07T10:36:17;15.52;;;10.05;;
10761;SDS011;5433;50.862;4.320;2023-02-07T10:38:58;14.90;;;8.48;;
10761;SDS011;5433;50.862;4.320;2023-02-07T10:43:54;14.18;;;8.32;;
10761;SDS011;5433;50.862;4.320;2023-02-07T10:46:20;13.20;;;7.97;;
10761;SDS011;5433;50.862;4.320;2023-02-07T10:48:47;10.85;;;7.47;;
10761;SDS011;5433;50.862;4.320;2023-02-07T10:53:48;14.25;;;6.97;;
10761;SDS011;5433;50.862;4.320;2023-02-07T10:56:18;11.25;;;7.15;;
10761;SDS011;5433;50.862;4.320;2023-02-07T10:58:44;11.05;;;6.50;;
10761;SDS011;5433;50.862;4.320;2023-02-07T11:01:24;9.07;;;6.88;;
10761;SDS011;5433;50.862;4.320;2023-02-07T11:03:51;10.80;;;6.45;;
10761;SDS011;5433;50.862;4.320;2023-02-07T11:06:28;13.68;;;6.60;;
10761;SDS011;5433;50.862;4.320;2023-02-07T11:09:39;10.48;;;6.90;;
10761;SDS011;5433;50.862;4.320;2023-02-07T11:11:40;12.18;;;6.72;;
10761;SDS011;5433;50.862;4.320;2023-02-07T11:14:14;12.80;;;6.55;;
10761;SDS011;5433;50.862;4.320;2023-02-07T11:16:42;10.63;;;6.22;;
10761;SDS011;5433;50.862;4.320;2023-02-07T11:19:12;10.98;;;6.55;;
10761;SDS011;5433;50.862;4.320;2023-02-07T11:21:43;10.63;;;6.30;;
10761;SDS011;5433;50.862;4.320;2023-02-07T11:29:27;10.88;;;6.60;;
10761;SDS011;5433;50.862;4.320;2023-02-07T11:31:54;10.70;;;6.05;;
10761;SDS011;5433;50.862;4.320;2023-02-07T11:36:49;13.00;;;6.22;;
10761;SDS011;5433;50.862;4.320;2023-02-07T11:39:17;9.82;;;6.25;;
10761;SDS011;5433;50.862;4.320;2023-02-07T11:41:59;10.00;;;6.13;;
10761;SDS011;5433;50.862;4.320;2023-02-07T11:44:26;10.95;;;6.80;;
10761;SDS011;5433;50.862;4.320;2023-02-07T11:46:53;11.38;;;6.50;;
10761;SDS011;5433;50.862;4.320;2023-02-07T11:52:02;11.32;;;6.10;;
10761;SDS011;5433;50.862;4.320;2023-02-07T11:54:28;10.18;;;6.35;;
10761;SDS011;5433;50.862;4.320;2023-02-07T11:57:03;11.65;;;6.75;;
10761;SDS011;5433;50.862;4.320;2023-02-07T11:59:30;11.10;;;6.63;;
10761;SDS011;5433;50.862;4.320;2023-02-07T12:01:58;13.10;;;6.72;;
10761;SDS011;5433;50.862;4.320;2023-02-07T12:04:36;11.02;;;6.32;;
10761;SDS011;5433;50.862;4.320;2023-02-07T12:09:39;12.70;;;6.75;;
10761;SDS011;5433;50.862;4.320;2023-02-07T12:12:08;10.77;;;6.88;;
10761;SDS011;5433;50.862;4.320;2023-02-07T12:14:40;12.85;;;6.40;;
10761;SDS011;5433;50.862;4.320;2023-02-07T12:17:12;12.65;;;6.85;;
10761;SDS011;5433;50.862;4.320;2023-02-07T12:19:44;9.90;;;5.90;;
10761;SDS011;5433;50.862;4.320;2023-02-07T12:25:14;11.07;;;6.40;;
10761;SDS011;5433;50.862;4.320;2023-02-07T12:27:43;9.45;;;6.05;;
10761;SDS011;5433;50.862;4.320;2023-02-07T12:30:15;12.23;;;6.00;;
10761;SDS011;5433;50.862;4.320;2023-02-07T12:32:57;10.18;;;5.53;;
10761;SDS011;5433;50.862;4.320;2023-02-07T12:35:27;9.52;;;5.97;;
10761;SDS011;5433;50.862;4.320;2023-02-07T12:40:44;12.18;;;7.05;;
10761;SDS011;5433;50.862;4.320;2023-02-07T12:43:18;11.43;;;6.63;;
10761;SDS011;5433;50.862;4.320;2023-02-07T12:45:55;11.00;;;6.60;;
10761;SDS011;5433;50.862;4.320;2023-02-07T12:50:53;9.63;;;7.25;;
10761;SDS011;5433;50.862;4.320;2023-02-07T12:53:38;11.68;;;7.20;;
10761;SDS011;5433;50.862;4.320;2023-02-07T13:04:03;11.63;;;6.80;;
10761;SDS011;5433;50.862;4.320;2023-02-07T13:09:17;10.95;;;6.70;;
10761;SDS011;5433;50.862;4.320;2023-02-07T13:19:39;11.57;;;6.47;;
10761;SDS011;5433;50.862;4.320;2023-02-07T13:24:58;7.80;;;5.22;;
10761;SDS011;5433;50.862;4.320;2023-02-07T13:27:24;10.88;;;6.35;;
10761;SDS011;5433;50.862;4.320;2023-02-07T13:29:51;11.13;;;6.00;;
10761;SDS011;5433;50.862;4.320;2023-02-07T13:32:19;8.48;;;5.25;;
10761;SDS011;5433;50.862;4.320;2023-02-07T13:37:14;8.15;;;5.32;;
10761;SDS011;5433;50.862;4.320;2023-02-07T13:50:35;7.60;;;4.72;;
10761;SDS011;5433;50.862;4.320;2023-02-07T13:53:25;11.15;;;4.90;;
10761;SDS011;5433;50.862;4.320;2023-02-07T13:55:52;7.43;;;4.43;;
10761;SDS011;5433;50.862;4.320;2023-02-07T14:01:24;6.88;;;4.22;;
10761;SDS011;5433;50.862;4.320;2023-02-07T14:04:03;5.85;;;4.40;;
10761;SDS011;5433;50.862;4.320;2023-02-07T14:06:31;7.90;;;4.32;;
10761;SDS011;5433;50.862;4.320;2023-02-07T14:11:43;5.38;;;4.03;;
10761;SDS011;5433;50.862;4.320;2023-02-07T14:14:14;7.30;;;4.43;;
10761;SDS011;5433;50.862;4.320;2023-02-07T14:16:48;7.85;;;4.28;;
10761;SDS011;5433;50.862;4.320;2023-02-07T14:19:14;11.05;;;5.78;;
10761;SDS011;5433;50.862;4.320;2023-02-07T14:21:42;9.95;;;4.53;;
10761;SDS011;5433;50.862;4.320;2023-02-07T14:34:20;10.25;;;4.60;;
10761;SDS011;5433;50.862;4.320;2023-02-07T14:36:47;4.75;;;3.67;;
10761;SDS011;5433;50.862;4.320;2023-02-07T14:41:40;5.53;;;4.18;;
10761;SDS011;5433;50.862;4.320;2023-02-07T14:44:17;5.00;;;3.80;;
10761;SDS011;5433;50.862;4.320;2023-02-07T14:46:47;6.80;;;4.30;;
10761;SDS011;5433;50.862;4.320;2023-02-07T14:49:25;5.93;;;4.20;;
10761;SDS011;5433;50.862;4.320;2023-02-07T14:51:56;6.38;;;3.88;;
10761;SDS011;5433;50.862;4.320;2023-02-07T14:57:35;7.72;;;4.45;;
10761;SDS011;5433;50.862;4.320;2023-02-07T14:59:42;6.35;;;4.50;;
10761;SDS011;5433;50.862;4.320;2023-02-07T15:02:29;5.63;;;4.20;;
10761;SDS011;5433;50.862;4.320;2023-02-07T15:04:55;7.28;;;4.40;;
10761;SDS011;5433;50.862;4.320;2023-02-07T15:07:21;6.65;;;4.43;;
10761;SDS011;5433;50.862;4.320;2023-02-07T15:09:48;6.82;;;4.13;;
10761;SDS011;5433;50.862;4.320;2023-02-07T15:12:22;8.02;;;4.68;;
10761;SDS011;5433;50.862;4.320;2023-02-07T15:14:50;6.28;;;4.10;;
10761;SDS011;5433;50.862;4.320;2023-02-07T15:17:20;10.93;;;5.80;;
10761;SDS011;5433;50.862;4.320;2023-02-07T15:19:46;6.40;;;4.30;;
10761;SDS011;5433;50.862;4.320;2023-02-07T15:22:25;7.03;;;3.92;;
10761;SDS011;5433;50.862;4.320;2023-02-07T15:24:56;5.38;;;3.90;;
10761;SDS011;5433;50.862;4.320;2023-02-07T15:27:24;6.30;;;4.10;;
10761;SDS011;5433;50.862;4.320;2023-02-07T15:29:54;6.80;;;4.50;;
10761;SDS011;5433;50.862;4.320;2023-02-07T15:32:22;7.38;;;4.35;;
10761;SDS011;5433;50.862;4.320;2023-02-07T15:34:48;5.72;;;4.50;;
10761;SDS011;5433;50.862;4.320;2023-02-07T15:37:17;7.35;;;4.85;;
10761;SDS011;5433;50.862;4.320;2023-02-07T15:39:43;9.80;;;5.30;;
10761;SDS011;5433;50.862;4.320;2023-02-07T15:42:11;13.90;;;7.78;;
10761;SDS011;5433;50.862;4.320;2023-02-07T15:44:47;7.25;;;4.90;;
10761;SDS011;5433;50.862;4.320;2023-02-07T15:52:29;7.70;;;5.00;;
10761;SDS011;5433;50.862;4.320;2023-02-07T15:54:56;7.22;;;5.45;;
10761;SDS011;5433;50.862;4.320;2023-02-07T15:57:27;8.43;;;5.28;;
10761;SDS011;5433;50.862;4.320;2023-02-07T15:59:55;8.52;;;5.30;;
10761;SDS011;5433;50.862;4.320;2023-02-07T16:02:29;10.68;;;5.10;;
10761;SDS011;5433;50.862;4.320;2023-02-07T16:04:56;7.88;;;5.07;;
10761;SDS011;5433;50.862;4.320;2023-02-07T16:07:23;7.22;;;4.65;;
10761;SDS011;5433;50.862;4.320;2023-02-07T16:09:49;8.77;;;5.10;;
10761;SDS011;5433;50.862;4.320;2023-02-07T16:14:46;6.25;;;4.40;;
10761;SDS011;5433;50.862;4.320;2023-02-07T16:17:23;5.90;;;4.75;;
10761;SDS011;5433;50.862;4.320;2023-02-07T16:19:50;6.65;;;4.38;;
10761;SDS011;5433;50.862;4.320;2023-02-07T16:22:17;8.68;;;4.80;;
10761;SDS011;5433;50.862;4.320;2023-02-07T16:24:44;7.25;;;4.60;;
10761;SDS011;5433;50.862;4.320;2023-02-07T16:27:21;8.07;;;4.93;;
10761;SDS011;5433;50.862;4.320;2023-02-07T16:29:51;6.03;;;4.22;;
10761;SDS011;5433;50.862;4.320;2023-02-07T16:32:18;6.97;;;4.60;;
10761;SDS011;5433;50.862;4.320;2023-02-07T16:34:45;9.25;;;4.93;;
10761;SDS011;5433;50.862;4.320;2023-02-07T16:37:11;9.25;;;5.20;;
10761;SDS011;5433;50.862;4.320;2023-02-07T16:39:38;8.30;;;5.43;;
10761;SDS011;5433;50.862;4.320;2023-02-07T16:42:05;8.43;;;5.35;;
10761;SDS011;5433;50.862;4.320;2023-02-07T16:44:34;7.85;;;5.40;;
10761;SDS011;5433;50.862;4.320;2023-02-07T16:47:00;7.18;;;5.53;;
10761;SDS011;5433;50.862;4.320;2023-02-07T16:49:28;8.00;;;5.35;;
10761;SDS011;5433;50.862;4.320;2023-02-07T16:51:54;8.57;;;5.45;;
10761;SDS011;5433;50.862;4.320;2023-02-07T16:54:20;9.18;;;5.13;;
10761;SDS011;5433;50.862;4.320;2023-02-07T16:56:47;8.73;;;5.53;;
10761;SDS011;5433;50.862;4.320;2023-02-07T16:59:15;8.10;;;5.38;;
10761;SDS011;5433;50.862;4.320;2023-02-07T17:01:48;8.18;;;5.40;;
10761;SDS011;5433;50.862;4.320;2023-02-07T17:04:14;8.05;;;5.35;;
10761;SDS011;5433;50.862;4.320;2023-02-07T17:06:41;14.57;;;6.20;;
10761;SDS011;5433;50.862;4.320;2023-02-07T17:09:18;8.45;;;5.88;;
10761;SDS011;5433;50.862;4.320;2023-02-07T17:11:45;10.20;;;5.93;;